Meath Environmental Platform

Observations for Trim Market St

Time AQI Temp °C Hum % Pres Pa CO μg/m³ H₂S μg/m³ NO μg/m³ NO₂ μg/m³ O₃ μg/m³ SO₂ μg/m³ PM1 μg/m³ PM2.5 μg/m³ PM10 μg/m³
Friday 10 July 2026
21:04 1 25.4 54 56,918 0 0 0 8.75 15.6 0 0.71 2.78 3.2
21:02 1 25.5 54 56,912 0 0 0 9.04 13.95 0 2.14 3.8 6.81
21:01 1 25.5 54 56,905 0 0 0 10.44 14.98 0 1.43 3.8 4.64
21:00 1 25.5 54 56,878 0 0 0 11.25 15.21 0 2.14 4.32 5.36
20:58 1 25.6 54 56,842 0 0.27 0 13.74 15.15 0 1.43 4.33 6.8
20:57 1 25.6 54 56,816 0 0 0 13.34 9.04 0 0.71 3.31 3.91
20:48 1 25.8 53 56,470 0 0 0 11.37 16.03 0 1.43 4.36 6.8
20:47 1 25.9 53 56,437 0 0 0 7.34 14.86 0 0.71 3.34 3.89
20:43 1 26 53 56,396 0 0 0 9.24 12.92 0 1.43 3.35 3.89
20:42 1 26 53 56,402 0 0 0 10.14 13.22 0 2.14 4.37 5.34
20:41 1 26.1 53 56,430 0 0 0 12.02 15.33 0 2.14 4.38 5.34
20:40 1 26.1 53 56,420 0 0 0 12.11 13.9 0 1.43 3.35 4.61
20:39 1 26.1 53 56,405 0 0 0 10.12 15.62 0 1.43 3.35 3.88
20:38 1 26.1 53 56,418 0 0 0 9.72 16.58 0 1.43 3.35 3.88
20:37 1 26.2 53 56,430 0 1.39 0 12.11 16.31 0 1.43 3.87 4.61
20:36 1 26.2 53 56,419 0 2.43 0 11.91 14.44 0 1.43 3.36 3.88
20:35 1 26.2 53 56,397 0 1.63 0 13.41 19.29 0 2.14 4.38 5.34
20:34 1 26.2 53 56,378 0 0.59 0 11.92 15.52 0 1.43 3.36 4.61
20:33 1 26.3 52 56,367 0 2.93 0 12.2 16.02 0 1.43 4.39 5.34
20:32 1 26.3 52 56,334 0 4.18 0 17.6 13.75 0 0.71 3.37 3.87